Roskilde, Denmark
Current Conditions -  °F | °C
As of 5:50 AM on Saturday 25 Oct 2014 (Local Time) from EKRK Reporting Station
Moderate Rain Moderate Rain  
Wind Chill: 43°   Ceiling: 1100
Heat Index: 48°   Visibility: 2.6mi
Dew Point: 46°   Wind: 13mph
Humidity: 93%   Direction: 170°S
Pressure: 30"   Gusts: NA
Location:  55.64°N, 12.08°E
Report Text: EKRK 250350Z AUTO 17011KT 4300NDV RA BR FEW008/// BKN011/// 09/08 Q1016
Loading
Personal Weather Stations






























Interactive Weather Map
Tropical Storm Tracking
New forecast layout! Learn more

10-Day Weather Forecast

Advertisements
Track Severe Weather on mobile